sensor_id;sensor_type;location;lat;lon;timestamp;temperature;humidity
24426;DHT22;12611;44.446;26.000;2023-06-22T00:00:39;24.80;73.20
24426;DHT22;12611;44.446;26.000;2023-06-22T00:03:09;24.80;73.30
24426;DHT22;12611;44.446;26.000;2023-06-22T00:05:38;24.80;73.20
24426;DHT22;12611;44.446;26.000;2023-06-22T00:08:06;24.70;73.40
24426;DHT22;12611;44.446;26.000;2023-06-22T00:10:35;24.80;73.60
24426;DHT22;12611;44.446;26.000;2023-06-22T00:13:03;24.70;73.50
24426;DHT22;12611;44.446;26.000;2023-06-22T00:15:33;24.70;73.50
24426;DHT22;12611;44.446;26.000;2023-06-22T00:18:01;24.70;73.50
24426;DHT22;12611;44.446;26.000;2023-06-22T00:20:30;24.60;73.60
24426;DHT22;12611;44.446;26.000;2023-06-22T00:23:00;24.60;73.70
24426;DHT22;12611;44.446;26.000;2023-06-22T00:25:28;24.60;73.90
24426;DHT22;12611;44.446;26.000;2023-06-22T00:27:56;24.60;74.00
24426;DHT22;12611;44.446;26.000;2023-06-22T00:30:25;24.50;73.90
24426;DHT22;12611;44.446;26.000;2023-06-22T00:32:55;24.50;73.90
24426;DHT22;12611;44.446;26.000;2023-06-22T00:35:24;24.50;73.90
24426;DHT22;12611;44.446;26.000;2023-06-22T00:37:56;24.50;74.10
24426;DHT22;12611;44.446;26.000;2023-06-22T00:40:28;24.50;74.50
24426;DHT22;12611;44.446;26.000;2023-06-22T00:42:57;24.40;74.50
24426;DHT22;12611;44.446;26.000;2023-06-22T00:45:26;24.40;74.50
24426;DHT22;12611;44.446;26.000;2023-06-22T00:47:56;24.40;74.70
24426;DHT22;12611;44.446;26.000;2023-06-22T00:50:27;24.30;74.70
24426;DHT22;12611;44.446;26.000;2023-06-22T00:53:03;24.30;74.70
24426;DHT22;12611;44.446;26.000;2023-06-22T00:55:38;24.30;74.90
24426;DHT22;12611;44.446;26.000;2023-06-22T00:58:11;24.30;75.20
24426;DHT22;12611;44.446;26.000;2023-06-22T01:00:40;24.20;75.30
24426;DHT22;12611;44.446;26.000;2023-06-22T01:03:11;24.20;75.70
24426;DHT22;12611;44.446;26.000;2023-06-22T01:05:40;24.20;75.80
24426;DHT22;12611;44.446;26.000;2023-06-22T01:08:23;24.10;75.80
24426;DHT22;12611;44.446;26.000;2023-06-22T01:10:59;24.10;75.80
24426;DHT22;12611;44.446;26.000;2023-06-22T01:13:35;24.10;75.90
24426;DHT22;12611;44.446;26.000;2023-06-22T01:16:07;24.00;76.10
24426;DHT22;12611;44.446;26.000;2023-06-22T01:18:41;24.00;76.20
24426;DHT22;12611;44.446;26.000;2023-06-22T01:21:14;24.00;76.40
24426;DHT22;12611;44.446;26.000;2023-06-22T01:23:58;24.00;76.90
24426;DHT22;12611;44.446;26.000;2023-06-22T01:26:37;23.90;76.80
24426;DHT22;12611;44.446;26.000;2023-06-22T01:29:09;23.90;76.80
24426;DHT22;12611;44.446;26.000;2023-06-22T01:31:41;23.90;76.90
24426;DHT22;12611;44.446;26.000;2023-06-22T01:34:11;23.90;77.00
24426;DHT22;12611;44.446;26.000;2023-06-22T01:36:40;23.90;76.90
24426;DHT22;12611;44.446;26.000;2023-06-22T01:39:09;23.80;76.90
24426;DHT22;12611;44.446;26.000;2023-06-22T01:41:39;23.80;76.90
24426;DHT22;12611;44.446;26.000;2023-06-22T01:44:10;23.80;77.10
24426;DHT22;12611;44.446;26.000;2023-06-22T01:46:40;23.70;77.50
24426;DHT22;12611;44.446;26.000;2023-06-22T01:49:09;23.70;77.70
24426;DHT22;12611;44.446;26.000;2023-06-22T01:51:38;23.70;78.00
24426;DHT22;12611;44.446;26.000;2023-06-22T01:54:06;23.70;78.10
24426;DHT22;12611;44.446;26.000;2023-06-22T01:56:36;23.60;78.90
24426;DHT22;12611;44.446;26.000;2023-06-22T01:59:11;23.60;78.30
24426;DHT22;12611;44.446;26.000;2023-06-22T02:01:44;23.60;78.40
24426;DHT22;12611;44.446;26.000;2023-06-22T02:04:19;23.60;78.50
24426;DHT22;12611;44.446;26.000;2023-06-22T02:06:53;23.60;78.60
24426;DHT22;12611;44.446;26.000;2023-06-22T02:09:23;23.60;78.90
24426;DHT22;12611;44.446;26.000;2023-06-22T02:11:54;23.50;78.80
24426;DHT22;12611;44.446;26.000;2023-06-22T02:14:25;23.60;79.30
24426;DHT22;12611;44.446;26.000;2023-06-22T02:16:54;23.50;79.30
24426;DHT22;12611;44.446;26.000;2023-06-22T02:19:27;23.50;79.50
24426;DHT22;12611;44.446;26.000;2023-06-22T02:22:00;23.50;79.50
24426;DHT22;12611;44.446;26.000;2023-06-22T02:24:28;23.50;79.70
24426;DHT22;12611;44.446;26.000;2023-06-22T02:26:59;23.50;79.90
24426;DHT22;12611;44.446;26.000;2023-06-22T02:29:28;23.40;80.50
24426;DHT22;12611;44.446;26.000;2023-06-22T02:31:57;23.40;80.80
24426;DHT22;12611;44.446;26.000;2023-06-22T02:34:25;23.40;81.00
24426;DHT22;12611;44.446;26.000;2023-06-22T02:36:53;23.40;80.80
24426;DHT22;12611;44.446;26.000;2023-06-22T02:39:23;23.30;80.90
24426;DHT22;12611;44.446;26.000;2023-06-22T02:41:52;23.30;80.90
24426;DHT22;12611;44.446;26.000;2023-06-22T02:44:21;23.30;80.80
24426;DHT22;12611;44.446;26.000;2023-06-22T02:46:51;23.30;80.90
24426;DHT22;12611;44.446;26.000;2023-06-22T02:49:19;23.30;80.90
24426;DHT22;12611;44.446;26.000;2023-06-22T02:51:48;23.30;81.20
24426;DHT22;12611;44.446;26.000;2023-06-22T02:54:17;23.30;81.10
24426;DHT22;12611;44.446;26.000;2023-06-22T02:56:45;23.30;81.10
24426;DHT22;12611;44.446;26.000;2023-06-22T02:59:15;23.30;81.20
24426;DHT22;12611;44.446;26.000;2023-06-22T03:01:43;23.30;81.20
24426;DHT22;12611;44.446;26.000;2023-06-22T03:04:13;23.30;81.40
24426;DHT22;12611;44.446;26.000;2023-06-22T03:06:42;23.30;81.60
24426;DHT22;12611;44.446;26.000;2023-06-22T03:09:10;23.30;82.50
24426;DHT22;12611;44.446;26.000;2023-06-22T03:11:39;23.30;81.90
24426;DHT22;12611;44.446;26.000;2023-06-22T03:14:07;23.30;82.10
24426;DHT22;12611;44.446;26.000;2023-06-22T03:16:36;23.20;82.30
24426;DHT22;12611;44.446;26.000;2023-06-22T03:19:04;23.20;82.30
24426;DHT22;12611;44.446;26.000;2023-06-22T03:21:34;23.20;82.30
24426;DHT22;12611;44.446;26.000;2023-06-22T03:24:02;23.30;82.70
24426;DHT22;12611;44.446;26.000;2023-06-22T03:26:31;23.20;83.00
24426;DHT22;12611;44.446;26.000;2023-06-22T03:28:59;23.30;83.50
24426;DHT22;12611;44.446;26.000;2023-06-22T03:31:28;23.20;83.30
24426;DHT22;12611;44.446;26.000;2023-06-22T03:33:56;23.30;83.40
24426;DHT22;12611;44.446;26.000;2023-06-22T03:36:25;23.30;83.40
24426;DHT22;12611;44.446;26.000;2023-06-22T03:38:55;23.30;83.40
24426;DHT22;12611;44.446;26.000;2023-06-22T03:41:24;23.30;83.40
24426;DHT22;12611;44.446;26.000;2023-06-22T03:43:52;23.30;83.80
24426;DHT22;12611;44.446;26.000;2023-06-22T03:46:20;23.30;83.80
24426;DHT22;12611;44.446;26.000;2023-06-22T03:48:49;23.30;83.80
24426;DHT22;12611;44.446;26.000;2023-06-22T03:51:17;23.40;84.30
24426;DHT22;12611;44.446;26.000;2023-06-22T03:53:45;23.40;84.10
24426;DHT22;12611;44.446;26.000;2023-06-22T03:56:16;23.50;84.30
24426;DHT22;12611;44.446;26.000;2023-06-22T03:58:47;23.50;84.40
24426;DHT22;12611;44.446;26.000;2023-06-22T04:01:15;23.50;84.40
24426;DHT22;12611;44.446;26.000;2023-06-22T04:03:45;23.50;84.40
24426;DHT22;12611;44.446;26.000;2023-06-22T04:06:15;23.50;84.10
24426;DHT22;12611;44.446;26.000;2023-06-22T04:08:45;23.60;84.50
24426;DHT22;12611;44.446;26.000;2023-06-22T04:11:19;23.60;84.90
24426;DHT22;12611;44.446;26.000;2023-06-22T04:13:48;23.60;84.90
24426;DHT22;12611;44.446;26.000;2023-06-22T04:16:18;23.70;84.90
24426;DHT22;12611;44.446;26.000;2023-06-22T04:18:46;23.70;84.60
24426;DHT22;12611;44.446;26.000;2023-06-22T04:21:15;23.80;85.00
24426;DHT22;12611;44.446;26.000;2023-06-22T04:23:43;23.80;85.50
24426;DHT22;12611;44.446;26.000;2023-06-22T04:26:13;23.80;85.10
24426;DHT22;12611;44.446;26.000;2023-06-22T04:28:43;23.90;84.80
24426;DHT22;12611;44.446;26.000;2023-06-22T04:31:18;24.00;84.70
24426;DHT22;12611;44.446;26.000;2023-06-22T04:33:47;24.00;84.40
24426;DHT22;12611;44.446;26.000;2023-06-22T04:36:18;24.10;84.40
24426;DHT22;12611;44.446;26.000;2023-06-22T04:38:50;24.10;84.30
24426;DHT22;12611;44.446;26.000;2023-06-22T04:41:19;24.20;84.50
24426;DHT22;12611;44.446;26.000;2023-06-22T04:43:52;24.20;84.70
24426;DHT22;12611;44.446;26.000;2023-06-22T04:46:21;24.20;84.40
24426;DHT22;12611;44.446;26.000;2023-06-22T04:48:49;24.30;84.20
24426;DHT22;12611;44.446;26.000;2023-06-22T04:51:18;24.30;84.10
24426;DHT22;12611;44.446;26.000;2023-06-22T04:53:48;24.40;84.10
24426;DHT22;12611;44.446;26.000;2023-06-22T04:56:17;24.50;84.10
24426;DHT22;12611;44.446;26.000;2023-06-22T04:58:48;24.50;84.10
24426;DHT22;12611;44.446;26.000;2023-06-22T05:01:20;24.60;84.00
24426;DHT22;12611;44.446;26.000;2023-06-22T05:03:49;24.60;84.00
24426;DHT22;12611;44.446;26.000;2023-06-22T05:06:17;24.70;84.10
24426;DHT22;12611;44.446;26.000;2023-06-22T05:08:45;24.80;83.90
24426;DHT22;12611;44.446;26.000;2023-06-22T05:11:14;24.90;83.80
24426;DHT22;12611;44.446;26.000;2023-06-22T05:13:42;25.00;83.30
24426;DHT22;12611;44.446;26.000;2023-06-22T05:16:11;25.00;82.70
24426;DHT22;12611;44.446;26.000;2023-06-22T05:18:41;25.10;82.50
24426;DHT22;12611;44.446;26.000;2023-06-22T05:21:10;25.20;82.10
24426;DHT22;12611;44.446;26.000;2023-06-22T05:23:38;25.30;82.00
24426;DHT22;12611;44.446;26.000;2023-06-22T05:26:07;25.40;81.20
24426;DHT22;12611;44.446;26.000;2023-06-22T05:28:36;25.40;80.90
24426;DHT22;12611;44.446;26.000;2023-06-22T05:31:05;25.50;79.90
24426;DHT22;12611;44.446;26.000;2023-06-22T05:33:33;25.60;79.40
24426;DHT22;12611;44.446;26.000;2023-06-22T05:36:03;25.70;78.70
24426;DHT22;12611;44.446;26.000;2023-06-22T05:38:32;25.70;78.40
24426;DHT22;12611;44.446;26.000;2023-06-22T05:41:00;25.80;78.40
24426;DHT22;12611;44.446;26.000;2023-06-22T05:43:29;25.90;78.00
24426;DHT22;12611;44.446;26.000;2023-06-22T05:45:57;26.00;78.00
24426;DHT22;12611;44.446;26.000;2023-06-22T05:48:26;26.10;77.70
24426;DHT22;12611;44.446;26.000;2023-06-22T05:50:54;26.10;76.00
24426;DHT22;12611;44.446;26.000;2023-06-22T05:53:24;26.20;76.00
24426;DHT22;12611;44.446;26.000;2023-06-22T05:55:53;26.30;76.10
24426;DHT22;12611;44.446;26.000;2023-06-22T05:58:21;26.40;75.60
24426;DHT22;12611;44.446;26.000;2023-06-22T06:00:50;26.50;75.80
24426;DHT22;12611;44.446;26.000;2023-06-22T06:03:18;26.50;75.10
24426;DHT22;12611;44.446;26.000;2023-06-22T06:05:46;26.60;74.20
24426;DHT22;12611;44.446;26.000;2023-06-22T06:08:15;26.70;72.90
24426;DHT22;12611;44.446;26.000;2023-06-22T06:10:44;26.70;72.90
24426;DHT22;12611;44.446;26.000;2023-06-22T06:13:13;26.80;73.10
24426;DHT22;12611;44.446;26.000;2023-06-22T06:15:41;26.90;74.00
24426;DHT22;12611;44.446;26.000;2023-06-22T06:18:10;27.00;72.70
24426;DHT22;12611;44.446;26.000;2023-06-22T06:20:38;27.10;72.10
24426;DHT22;12611;44.446;26.000;2023-06-22T06:23:07;27.10;72.10
24426;DHT22;12611;44.446;26.000;2023-06-22T06:25:38;27.20;71.40
24426;DHT22;12611;44.446;26.000;2023-06-22T06:28:07;27.20;71.00
24426;DHT22;12611;44.446;26.000;2023-06-22T06:30:36;27.30;70.40
24426;DHT22;12611;44.446;26.000;2023-06-22T06:33:04;27.30;70.20
24426;DHT22;12611;44.446;26.000;2023-06-22T06:35:36;27.40;70.20
24426;DHT22;12611;44.446;26.000;2023-06-22T06:38:04;27.50;70.30
24426;DHT22;12611;44.446;26.000;2023-06-22T06:40:33;27.60;70.50
24426;DHT22;12611;44.446;26.000;2023-06-22T06:43:01;27.70;70.40
24426;DHT22;12611;44.446;26.000;2023-06-22T06:45:31;27.80;69.90
24426;DHT22;12611;44.446;26.000;2023-06-22T06:48:01;27.80;69.80
24426;DHT22;12611;44.446;26.000;2023-06-22T06:50:30;27.90;68.50
24426;DHT22;12611;44.446;26.000;2023-06-22T06:52:59;27.90;68.90
24426;DHT22;12611;44.446;26.000;2023-06-22T06:55:27;28.00;68.60
24426;DHT22;12611;44.446;26.000;2023-06-22T06:58:00;28.10;68.20
24426;DHT22;12611;44.446;26.000;2023-06-22T07:00:30;28.10;68.00
24426;DHT22;12611;44.446;26.000;2023-06-22T07:03:02;28.20;67.90
24426;DHT22;12611;44.446;26.000;2023-06-22T07:05:30;28.20;67.50
24426;DHT22;12611;44.446;26.000;2023-06-22T07:07:59;28.30;66.60
24426;DHT22;12611;44.446;26.000;2023-06-22T07:10:28;28.30;67.00
24426;DHT22;12611;44.446;26.000;2023-06-22T07:12:57;28.40;67.30
24426;DHT22;12611;44.446;26.000;2023-06-22T07:15:26;28.40;67.20
24426;DHT22;12611;44.446;26.000;2023-06-22T07:17:56;28.50;66.90
24426;DHT22;12611;44.446;26.000;2023-06-22T07:20:25;28.50;66.80
24426;DHT22;12611;44.446;26.000;2023-06-22T07:22:54;28.60;66.70
24426;DHT22;12611;44.446;26.000;2023-06-22T07:25:25;28.60;66.30
24426;DHT22;12611;44.446;26.000;2023-06-22T07:27:59;28.70;66.10
24426;DHT22;12611;44.446;26.000;2023-06-22T07:30:28;28.70;66.00
24426;DHT22;12611;44.446;26.000;2023-06-22T07:33:02;28.70;65.90
24426;DHT22;12611;44.446;26.000;2023-06-22T07:35:33;28.70;66.00
24426;DHT22;12611;44.446;26.000;2023-06-22T07:38:02;28.80;66.00
24426;DHT22;12611;44.446;26.000;2023-06-22T07:40:33;28.90;66.20
24426;DHT22;12611;44.446;26.000;2023-06-22T07:43:02;28.80;65.80
24426;DHT22;12611;44.446;26.000;2023-06-22T07:45:31;28.90;65.60
24426;DHT22;12611;44.446;26.000;2023-06-22T07:48:03;28.90;65.50
24426;DHT22;12611;44.446;26.000;2023-06-22T07:50:32;28.90;65.80
24426;DHT22;12611;44.446;26.000;2023-06-22T07:53:00;28.90;65.80
24426;DHT22;12611;44.446;26.000;2023-06-22T07:55:29;28.90;65.20
24426;DHT22;12611;44.446;26.000;2023-06-22T07:57:58;29.00;65.50
24426;DHT22;12611;44.446;26.000;2023-06-22T08:00:26;29.00;64.70
24426;DHT22;12611;44.446;26.000;2023-06-22T08:02:54;29.00;65.90
24426;DHT22;12611;44.446;26.000;2023-06-22T08:05:25;29.10;65.30
24426;DHT22;12611;44.446;26.000;2023-06-22T08:07:56;29.10;65.30
24426;DHT22;12611;44.446;26.000;2023-06-22T08:10:24;29.20;65.20
24426;DHT22;12611;44.446;26.000;2023-06-22T08:12:53;29.20;65.80
24426;DHT22;12611;44.446;26.000;2023-06-22T08:15:21;29.20;65.00
24426;DHT22;12611;44.446;26.000;2023-06-22T08:17:50;29.30;65.20
24426;DHT22;12611;44.446;26.000;2023-06-22T08:20:19;29.30;64.80
24426;DHT22;12611;44.446;26.000;2023-06-22T08:22:49;29.30;64.40
24426;DHT22;12611;44.446;26.000;2023-06-22T08:25:18;29.40;64.70
24426;DHT22;12611;44.446;26.000;2023-06-22T08:27:47;29.40;65.10
24426;DHT22;12611;44.446;26.000;2023-06-22T08:30:16;29.40;65.10
24426;DHT22;12611;44.446;26.000;2023-06-22T08:32:45;29.50;64.60
24426;DHT22;12611;44.446;26.000;2023-06-22T08:35:13;29.50;64.60
24426;DHT22;12611;44.446;26.000;2023-06-22T08:37:42;29.50;64.00
24426;DHT22;12611;44.446;26.000;2023-06-22T08:40:14;29.60;63.70
24426;DHT22;12611;44.446;26.000;2023-06-22T08:42:42;29.60;63.60
24426;DHT22;12611;44.446;26.000;2023-06-22T08:45:11;29.60;63.40
24426;DHT22;12611;44.446;26.000;2023-06-22T08:47:40;29.60;63.40
24426;DHT22;12611;44.446;26.000;2023-06-22T08:50:10;29.70;63.10
24426;DHT22;12611;44.446;26.000;2023-06-22T08:52:40;29.70;62.60
24426;DHT22;12611;44.446;26.000;2023-06-22T08:55:09;29.80;62.70
24426;DHT22;12611;44.446;26.000;2023-06-22T08:57:39;29.80;61.60
24426;DHT22;12611;44.446;26.000;2023-06-22T09:00:09;29.80;61.20
24426;DHT22;12611;44.446;26.000;2023-06-22T09:02:43;29.80;61.30
24426;DHT22;12611;44.446;26.000;2023-06-22T09:05:12;29.80;61.50
24426;DHT22;12611;44.446;26.000;2023-06-22T09:07:41;29.90;61.80
24426;DHT22;12611;44.446;26.000;2023-06-22T09:10:10;29.90;62.00
24426;DHT22;12611;44.446;26.000;2023-06-22T09:12:40;30.00;62.40
24426;DHT22;12611;44.446;26.000;2023-06-22T09:15:09;30.10;62.40
24426;DHT22;12611;44.446;26.000;2023-06-22T09:17:41;30.10;62.40
24426;DHT22;12611;44.446;26.000;2023-06-22T09:20:11;30.10;61.50
24426;DHT22;12611;44.446;26.000;2023-06-22T09:22:39;30.20;61.60
24426;DHT22;12611;44.446;26.000;2023-06-22T09:25:09;30.20;61.30
24426;DHT22;12611;44.446;26.000;2023-06-22T09:27:37;30.30;61.60
24426;DHT22;12611;44.446;26.000;2023-06-22T09:30:08;30.30;61.40
24426;DHT22;12611;44.446;26.000;2023-06-22T09:32:37;30.40;61.50
24426;DHT22;12611;44.446;26.000;2023-06-22T09:35:06;30.40;60.90
24426;DHT22;12611;44.446;26.000;2023-06-22T09:37:36;30.40;60.20
24426;DHT22;12611;44.446;26.000;2023-06-22T09:40:06;30.50;60.30
24426;DHT22;12611;44.446;26.000;2023-06-22T09:42:38;30.50;60.30
24426;DHT22;12611;44.446;26.000;2023-06-22T09:45:09;30.60;59.70
24426;DHT22;12611;44.446;26.000;2023-06-22T09:47:37;30.60;59.70
24426;DHT22;12611;44.446;26.000;2023-06-22T09:50:06;30.70;59.80
24426;DHT22;12611;44.446;26.000;2023-06-22T09:52:35;30.70;59.60
24426;DHT22;12611;44.446;26.000;2023-06-22T09:55:08;30.80;59.60
24426;DHT22;12611;44.446;26.000;2023-06-22T09:57:36;30.80;59.60
24426;DHT22;12611;44.446;26.000;2023-06-22T10:00:05;30.90;59.70
24426;DHT22;12611;44.446;26.000;2023-06-22T10:02:39;31.00;60.00
24426;DHT22;12611;44.446;26.000;2023-06-22T10:05:08;31.00;59.70
24426;DHT22;12611;44.446;26.000;2023-06-22T10:07:37;31.10;59.80
24426;DHT22;12611;44.446;26.000;2023-06-22T10:10:10;31.20;59.80
24426;DHT22;12611;44.446;26.000;2023-06-22T10:12:42;31.20;59.70
24426;DHT22;12611;44.446;26.000;2023-06-22T10:15:11;31.30;59.50
24426;DHT22;12611;44.446;26.000;2023-06-22T10:17:41;31.40;59.70
24426;DHT22;12611;44.446;26.000;2023-06-22T10:20:10;31.40;59.70
24426;DHT22;12611;44.446;26.000;2023-06-22T10:22:40;31.60;59.50
24426;DHT22;12611;44.446;26.000;2023-06-22T10:25:09;31.60;59.00
24426;DHT22;12611;44.446;26.000;2023-06-22T10:27:37;31.70;58.60
24426;DHT22;12611;44.446;26.000;2023-06-22T10:30:09;31.70;58.30
24426;DHT22;12611;44.446;26.000;2023-06-22T10:32:38;31.70;58.10
24426;DHT22;12611;44.446;26.000;2023-06-22T10:35:08;31.80;58.10
24426;DHT22;12611;44.446;26.000;2023-06-22T10:37:37;31.80;58.10
24426;DHT22;12611;44.446;26.000;2023-06-22T10:40:07;31.80;57.80
24426;DHT22;12611;44.446;26.000;2023-06-22T10:42:36;31.80;57.70
24426;DHT22;12611;44.446;26.000;2023-06-22T10:45:05;31.80;57.10
24426;DHT22;12611;44.446;26.000;2023-06-22T10:47:33;31.90;57.60
24426;DHT22;12611;44.446;26.000;2023-06-22T10:50:05;31.90;57.70
24426;DHT22;12611;44.446;26.000;2023-06-22T10:52:35;32.00;57.30
24426;DHT22;12611;44.446;26.000;2023-06-22T10:55:05;32.00;57.10
24426;DHT22;12611;44.446;26.000;2023-06-22T10:57:33;32.10;56.70
24426;DHT22;12611;44.446;26.000;2023-06-22T11:00:02;32.10;56.90
24426;DHT22;12611;44.446;26.000;2023-06-22T11:02:32;32.20;56.70
24426;DHT22;12611;44.446;26.000;2023-06-22T11:05:00;32.10;56.80
24426;DHT22;12611;44.446;26.000;2023-06-22T11:07:29;32.20;57.10
24426;DHT22;12611;44.446;26.000;2023-06-22T11:09:59;32.20;56.80
24426;DHT22;12611;44.446;26.000;2023-06-22T11:12:27;32.20;56.70
24426;DHT22;12611;44.446;26.000;2023-06-22T11:14:56;32.30;56.30
24426;DHT22;12611;44.446;26.000;2023-06-22T11:17:25;32.40;55.90
24426;DHT22;12611;44.446;26.000;2023-06-22T11:19:54;32.40;55.80
24426;DHT22;12611;44.446;26.000;2023-06-22T11:22:22;32.40;56.00
24426;DHT22;12611;44.446;26.000;2023-06-22T11:24:51;32.30;55.30
24426;DHT22;12611;44.446;26.000;2023-06-22T11:27:24;32.30;55.40
24426;DHT22;12611;44.446;26.000;2023-06-22T11:29:55;32.20;55.40
24426;DHT22;12611;44.446;26.000;2023-06-22T11:32:23;32.20;55.70
24426;DHT22;12611;44.446;26.000;2023-06-22T11:34:52;32.20;55.70
24426;DHT22;12611;44.446;26.000;2023-06-22T11:37:20;32.10;55.90
24426;DHT22;12611;44.446;26.000;2023-06-22T11:39:48;32.20;56.20
24426;DHT22;12611;44.446;26.000;2023-06-22T11:42:33;32.30;56.10
24426;DHT22;12611;44.446;26.000;2023-06-22T11:45:01;32.20;56.00
24426;DHT22;12611;44.446;26.000;2023-06-22T11:47:32;32.20;56.10
24426;DHT22;12611;44.446;26.000;2023-06-22T11:50:00;32.20;56.00
24426;DHT22;12611;44.446;26.000;2023-06-22T11:52:28;32.30;56.00
24426;DHT22;12611;44.446;26.000;2023-06-22T11:54:57;32.30;55.90
24426;DHT22;12611;44.446;26.000;2023-06-22T11:57:26;32.30;56.00
24426;DHT22;12611;44.446;26.000;2023-06-22T11:59:56;32.20;56.10
24426;DHT22;12611;44.446;26.000;2023-06-22T12:02:24;32.30;55.90
24426;DHT22;12611;44.446;26.000;2023-06-22T12:04:53;32.40;55.90
24426;DHT22;12611;44.446;26.000;2023-06-22T12:07:23;32.50;56.10
24426;DHT22;12611;44.446;26.000;2023-06-22T12:09:51;32.60;56.50
24426;DHT22;12611;44.446;26.000;2023-06-22T12:12:20;32.60;56.70
24426;DHT22;12611;44.446;26.000;2023-06-22T12:14:48;32.60;56.70
24426;DHT22;12611;44.446;26.000;2023-06-22T12:17:18;32.50;55.70
24426;DHT22;12611;44.446;26.000;2023-06-22T12:19:46;32.50;55.90
24426;DHT22;12611;44.446;26.000;2023-06-22T12:22:14;32.40;55.90
24426;DHT22;12611;44.446;26.000;2023-06-22T12:24:43;32.40;56.00
24426;DHT22;12611;44.446;26.000;2023-06-22T12:27:11;32.40;56.20
24426;DHT22;12611;44.446;26.000;2023-06-22T12:29:39;32.40;56.00
24426;DHT22;12611;44.446;26.000;2023-06-22T12:32:08;32.40;56.20
24426;DHT22;12611;44.446;26.000;2023-06-22T12:34:37;32.40;56.30
24426;DHT22;12611;44.446;26.000;2023-06-22T12:37:06;32.50;56.50
24426;DHT22;12611;44.446;26.000;2023-06-22T12:39:34;32.40;56.20
24426;DHT22;12611;44.446;26.000;2023-06-22T12:42:03;32.50;56.30
24426;DHT22;12611;44.446;26.000;2023-06-22T12:44:32;32.60;56.10
24426;DHT22;12611;44.446;26.000;2023-06-22T12:47:00;32.70;55.80
24426;DHT22;12611;44.446;26.000;2023-06-22T12:49:29;32.80;55.50
24426;DHT22;12611;44.446;26.000;2023-06-22T12:51:59;33.00;55.70
24426;DHT22;12611;44.446;26.000;2023-06-22T12:54:28;33.20;55.60
24426;DHT22;12611;44.446;26.000;2023-06-22T12:57:01;33.40;55.50
24426;DHT22;12611;44.446;26.000;2023-06-22T12:59:30;33.60;56.00
24426;DHT22;12611;44.446;26.000;2023-06-22T13:01:58;33.50;55.00
24426;DHT22;12611;44.446;26.000;2023-06-22T13:04:26;33.60;54.80
24426;DHT22;12611;44.446;26.000;2023-06-22T13:06:55;33.50;53.70
24426;DHT22;12611;44.446;26.000;2023-06-22T13:09:25;33.40;53.60
24426;DHT22;12611;44.446;26.000;2023-06-22T13:11:53;33.40;53.90
24426;DHT22;12611;44.446;26.000;2023-06-22T13:14:22;33.40;53.90
24426;DHT22;12611;44.446;26.000;2023-06-22T13:16:50;33.30;53.80
24426;DHT22;12611;44.446;26.000;2023-06-22T13:19:19;33.20;53.90
24426;DHT22;12611;44.446;26.000;2023-06-22T13:21:47;33.20;54.00
24426;DHT22;12611;44.446;26.000;2023-06-22T13:24:15;33.20;53.90
24426;DHT22;12611;44.446;26.000;2023-06-22T13:26:45;33.10;53.50
24426;DHT22;12611;44.446;26.000;2023-06-22T13:29:14;33.10;53.50
24426;DHT22;12611;44.446;26.000;2023-06-22T13:31:42;33.00;53.50
24426;DHT22;12611;44.446;26.000;2023-06-22T13:34:10;33.00;53.70
24426;DHT22;12611;44.446;26.000;2023-06-22T13:36:39;33.00;53.90
24426;DHT22;12611;44.446;26.000;2023-06-22T13:39:07;33.00;53.90
24426;DHT22;12611;44.446;26.000;2023-06-22T13:41:36;33.00;53.80
24426;DHT22;12611;44.446;26.000;2023-06-22T13:44:05;33.10;53.70
24426;DHT22;12611;44.446;26.000;2023-06-22T13:46:34;33.10;53.80
24426;DHT22;12611;44.446;26.000;2023-06-22T13:49:02;33.00;53.80
24426;DHT22;12611;44.446;26.000;2023-06-22T13:51:30;33.00;53.80
24426;DHT22;12611;44.446;26.000;2023-06-22T13:53:59;33.00;53.70
24426;DHT22;12611;44.446;26.000;2023-06-22T13:56:27;33.00;53.60
24426;DHT22;12611;44.446;26.000;2023-06-22T13:58:56;33.00;53.20
24426;DHT22;12611;44.446;26.000;2023-06-22T14:01:25;33.00;53.10
24426;DHT22;12611;44.446;26.000;2023-06-22T14:03:54;32.90;53.20
24426;DHT22;12611;44.446;26.000;2023-06-22T14:06:22;32.90;54.00
24426;DHT22;12611;44.446;26.000;2023-06-22T14:08:51;32.90;53.30
24426;DHT22;12611;44.446;26.000;2023-06-22T14:11:19;32.90;53.60
24426;DHT22;12611;44.446;26.000;2023-06-22T14:13:47;32.90;53.60
24426;DHT22;12611;44.446;26.000;2023-06-22T14:16:16;32.90;53.80
24426;DHT22;12611;44.446;26.000;2023-06-22T14:18:46;32.90;54.10
24426;DHT22;12611;44.446;26.000;2023-06-22T14:21:14;32.90;53.90
24426;DHT22;12611;44.446;26.000;2023-06-22T14:23:43;33.00;54.10
24426;DHT22;12611;44.446;26.000;2023-06-22T14:26:16;33.00;54.20
24426;DHT22;12611;44.446;26.000;2023-06-22T14:28:45;33.10;54.40
24426;DHT22;12611;44.446;26.000;2023-06-22T14:31:17;33.10;54.40
24426;DHT22;12611;44.446;26.000;2023-06-22T14:33:50;33.20;54.60
24426;DHT22;12611;44.446;26.000;2023-06-22T14:36:18;33.10;54.40
24426;DHT22;12611;44.446;26.000;2023-06-22T14:38:47;33.20;54.40
24426;DHT22;12611;44.446;26.000;2023-06-22T14:41:15;33.20;54.10
24426;DHT22;12611;44.446;26.000;2023-06-22T14:43:45;33.20;54.20
24426;DHT22;12611;44.446;26.000;2023-06-22T14:46:14;33.10;54.10
24426;DHT22;12611;44.446;26.000;2023-06-22T14:48:43;33.20;54.20
24426;DHT22;12611;44.446;26.000;2023-06-22T14:51:13;33.20;53.60
24426;DHT22;12611;44.446;26.000;2023-06-22T14:53:45;33.30;53.40
24426;DHT22;12611;44.446;26.000;2023-06-22T14:56:14;33.20;53.00
24426;DHT22;12611;44.446;26.000;2023-06-22T14:58:43;33.20;52.70
24426;DHT22;12611;44.446;26.000;2023-06-22T15:01:14;33.20;53.00
24426;DHT22;12611;44.446;26.000;2023-06-22T15:03:42;33.20;53.30
24426;DHT22;12611;44.446;26.000;2023-06-22T15:06:12;33.20;53.40
24426;DHT22;12611;44.446;26.000;2023-06-22T15:08:41;33.20;53.60
24426;DHT22;12611;44.446;26.000;2023-06-22T15:11:10;33.30;53.60
24426;DHT22;12611;44.446;26.000;2023-06-22T15:13:39;33.40;53.60
24426;DHT22;12611;44.446;26.000;2023-06-22T15:16:11;33.40;53.50
24426;DHT22;12611;44.446;26.000;2023-06-22T15:18:39;33.40;53.40
24426;DHT22;12611;44.446;26.000;2023-06-22T15:21:08;33.40;53.30
24426;DHT22;12611;44.446;26.000;2023-06-22T15:23:38;33.40;53.20
24426;DHT22;12611;44.446;26.000;2023-06-22T15:26:06;33.50;53.10
24426;DHT22;12611;44.446;26.000;2023-06-22T15:28:34;33.50;52.80